createdAt,value
2019-01-31T00:01:23.118Z,17.60
2019-01-31T00:07:25.016Z,20.10
2019-01-31T00:10:00.873Z,28.00
2019-01-31T00:12:49.405Z,20.87
2019-01-31T00:15:39.740Z,19.83
2019-01-31T00:18:28.724Z,18.03
2019-01-31T00:21:24.227Z,18.43
2019-01-31T00:23:58.785Z,19.20
2019-01-31T00:26:56.267Z,18.57
2019-01-31T00:29:49.591Z,18.83
2019-01-31T00:32:23.862Z,20.77
2019-01-31T00:34:57.720Z,22.13
2019-01-31T00:37:31.756Z,19.70
2019-01-31T00:40:21.432Z,23.07
2019-01-31T00:43:13.853Z,18.70
2019-01-31T00:46:09.203Z,21.43
2019-01-31T00:49:01.564Z,21.80
2019-01-31T00:51:50.975Z,19.37
2019-01-31T00:54:30.763Z,20.93
2019-01-31T00:57:20.930Z,20.57
2019-01-31T01:00:28.430Z,22.30
2019-01-31T01:03:03.407Z,23.60
2019-01-31T01:05:55.664Z,18.93
2019-01-31T01:08:35.469Z,19.13
2019-01-31T01:11:27.713Z,17.00
2019-01-31T01:14:15.676Z,21.43
2019-01-31T01:16:53.708Z,22.90
2019-01-31T01:19:26.622Z,23.97
2019-01-31T01:22:12.155Z,22.50
2019-01-31T01:24:56.300Z,24.00
2019-01-31T01:27:57.987Z,20.57
2019-01-31T01:30:56.067Z,20.03
2019-01-31T01:33:49.175Z,22.50
2019-01-31T01:36:22.934Z,18.53
2019-01-31T01:39:19.600Z,17.70
2019-01-31T01:41:59.179Z,17.43
2019-01-31T01:44:46.941Z,20.90
2019-01-31T01:47:24.769Z,18.97
2019-01-31T01:49:59.774Z,19.30
2019-01-31T01:52:32.155Z,18.47
2019-01-31T01:55:08.486Z,20.60
2019-01-31T01:57:57.457Z,20.00
2019-01-31T02:01:01.741Z,19.40
2019-01-31T02:03:50.523Z,17.60
2019-01-31T02:06:29.716Z,17.73
2019-01-31T02:09:17.111Z,20.07
2019-01-31T02:12:18.624Z,24.63
2019-01-31T02:15:13.221Z,21.40
2019-01-31T02:17:46.468Z,20.90
2019-01-31T02:20:25.546Z,17.83
2019-01-31T02:23:01.257Z,19.83
2019-01-31T02:25:39.383Z,19.10
2019-01-31T02:28:34.709Z,19.47
2019-01-31T02:31:09.013Z,19.37
2019-01-31T02:34:13.688Z,17.43
2019-01-31T02:37:05.948Z,18.83
2019-01-31T02:39:46.218Z,16.83
2019-01-31T02:42:41.851Z,17.07
2019-01-31T02:45:31.151Z,18.17
2019-01-31T02:48:19.228Z,19.47
2019-01-31T02:51:02.387Z,17.33
2019-01-31T02:54:00.671Z,16.10
2019-01-31T02:56:49.801Z,17.33
2019-01-31T02:59:45.132Z,22.57
2019-01-31T03:02:40.576Z,19.60
2019-01-31T03:05:20.963Z,20.20
2019-01-31T03:08:09.049Z,18.17
2019-01-31T03:10:57.201Z,20.10
2019-01-31T03:14:09.936Z,18.63
2019-01-31T03:17:04.921Z,18.37
2019-01-31T03:20:09.531Z,18.53
2019-01-31T03:22:42.330Z,18.83
2019-01-31T03:25:38.583Z,23.20
2019-01-31T03:28:18.016Z,19.33
2019-01-31T03:30:54.680Z,20.53
2019-01-31T03:33:47.110Z,24.50
2019-01-31T03:36:22.883Z,22.67
2019-01-31T03:39:00.418Z,23.57
2019-01-31T03:41:43.800Z,17.13
2019-01-31T03:44:19.519Z,18.33
2019-01-31T03:47:08.015Z,17.67
2019-01-31T03:50:00.491Z,18.40
2019-01-31T03:52:37.097Z,20.63
2019-01-31T03:55:35.577Z,25.87
2019-01-31T03:58:24.815Z,20.43
2019-01-31T04:01:20.266Z,19.37
2019-01-31T04:03:53.450Z,25.50
2019-01-31T04:06:25.218Z,22.40
2019-01-31T04:08:55.738Z,25.37
2019-01-31T04:11:25.805Z,19.30
2019-01-31T04:13:55.861Z,24.17
2019-01-31T04:16:26.076Z,23.87
2019-01-31T04:18:56.298Z,23.27
2019-01-31T04:21:26.424Z,20.77
2019-01-31T04:23:56.525Z,22.57
2019-01-31T04:26:26.629Z,18.93
2019-01-31T04:28:57.307Z,26.27
2019-01-31T04:31:27.653Z,21.13
2019-01-31T04:33:58.283Z,23.77
2019-01-31T04:36:28.397Z,23.87
2019-01-31T04:38:58.774Z,22.67
2019-01-31T04:41:29.505Z,23.30
2019-01-31T04:43:59.692Z,26.47
2019-01-31T04:46:30.000Z,23.17
2019-01-31T04:49:01.653Z,22.53
2019-01-31T04:51:32.251Z,29.53
2019-01-31T04:54:02.327Z,24.00
2019-01-31T04:56:32.499Z,22.63
2019-01-31T04:59:03.229Z,23.30
2019-01-31T05:01:33.759Z,26.40
2019-01-31T05:04:05.249Z,22.23
2019-01-31T05:06:35.647Z,20.60
2019-01-31T05:09:21.223Z,21.47
2019-01-31T05:11:53.832Z,24.63
2019-01-31T05:14:24.884Z,30.27
2019-01-31T05:16:57.660Z,22.93
2019-01-31T05:19:27.858Z,25.17
2019-01-31T05:21:58.520Z,25.20
2019-01-31T05:24:29.040Z,23.07
2019-01-31T05:27:10.918Z,21.33
2019-01-31T05:29:47.376Z,24.63
2019-01-31T05:32:18.254Z,21.17
2019-01-31T05:34:53.015Z,21.17
2019-01-31T05:37:26.368Z,20.30
2019-01-31T05:40:10.585Z,23.37
2019-01-31T05:42:41.972Z,22.63
2019-01-31T05:45:16.347Z,19.67
2019-01-31T05:47:58.599Z,22.63
2019-01-31T05:50:29.587Z,21.97
2019-01-31T05:53:00.314Z,21.30
2019-01-31T05:55:44.514Z,18.07
2019-01-31T05:58:16.868Z,17.87
2019-01-31T06:00:47.558Z,19.90
2019-01-31T06:03:18.026Z,19.77
2019-01-31T06:05:49.176Z,21.27
2019-01-31T06:32:50.011Z,17.20
2019-01-31T06:35:22.109Z,14.73
2019-01-31T06:37:53.687Z,16.27
2019-01-31T06:40:24.569Z,16.97
2019-01-31T06:42:55.107Z,16.97
2019-01-31T06:45:25.806Z,14.27
2019-01-31T06:47:56.442Z,19.73
2019-01-31T06:50:26.501Z,15.67
2019-01-31T06:52:58.229Z,15.57
2019-01-31T06:55:28.442Z,15.13
2019-01-31T06:58:00.850Z,15.20
2019-01-31T07:06:25.408Z,14.67
2019-01-31T07:08:56.333Z,16.83
2019-01-31T07:11:30.113Z,17.80
2019-01-31T07:14:02.194Z,18.17
2019-01-31T07:16:32.237Z,14.87
2019-01-31T07:19:02.237Z,15.00
2019-01-31T07:21:32.288Z,13.77
2019-01-31T07:24:02.545Z,18.23
2019-01-31T07:26:32.605Z,16.10
2019-01-31T07:29:02.685Z,14.03
2019-01-31T07:31:32.745Z,15.63
2019-01-31T07:34:03.674Z,15.77
2019-01-31T07:36:33.650Z,14.30
2019-01-31T07:39:05.218Z,18.13
2019-01-31T07:41:41.563Z,14.53
2019-01-31T07:44:08.110Z,13.97
2019-01-31T07:46:38.397Z,15.90
2019-01-31T07:49:08.531Z,17.83
2019-01-31T07:51:38.530Z,20.40
2019-01-31T07:54:08.630Z,16.77
2019-01-31T07:56:38.646Z,16.00
2019-01-31T07:59:08.709Z,18.30
2019-01-31T08:01:40.811Z,15.23
2019-01-31T08:04:10.642Z,15.10
2019-01-31T08:06:40.669Z,18.07
2019-01-31T08:09:10.845Z,22.47
2019-01-31T08:11:52.031Z,22.67
2019-01-31T08:14:13.138Z,22.53
2019-01-31T08:16:43.423Z,21.37
2019-01-31T08:19:13.370Z,21.07
2019-01-31T08:21:43.408Z,18.43
2019-01-31T08:24:13.433Z,19.97
2019-01-31T08:26:43.433Z,19.33
2019-01-31T08:29:13.461Z,17.27
2019-01-31T08:31:43.513Z,17.67
2019-01-31T08:34:13.561Z,19.23
2019-01-31T08:36:43.534Z,20.03
2019-01-31T08:39:13.581Z,26.17
2019-01-31T08:41:43.646Z,25.70
2019-01-31T08:44:13.639Z,22.80
2019-01-31T08:46:44.778Z,32.67
2019-01-31T08:49:15.034Z,28.97
2019-01-31T08:51:45.338Z,32.13
2019-01-31T08:54:15.284Z,28.50
2019-01-31T08:56:45.378Z,28.33
2019-01-31T08:59:15.724Z,25.67
2019-01-31T09:01:46.090Z,21.03
2019-01-31T09:04:16.086Z,26.30
2019-01-31T09:06:46.177Z,25.17
2019-01-31T09:09:16.260Z,25.00
2019-01-31T09:11:46.224Z,24.43
2019-01-31T09:14:16.424Z,30.27
2019-01-31T09:16:46.745Z,35.50
2019-01-31T09:19:17.052Z,31.90
2019-01-31T09:21:49.442Z,32.03
2019-01-31T09:24:51.021Z,33.27
2019-01-31T09:27:47.094Z,30.07
2019-01-31T09:30:45.741Z,32.83
2019-01-31T09:33:50.256Z,30.47
2019-01-31T09:36:25.018Z,28.27
2019-01-31T09:39:23.391Z,30.60
2019-01-31T09:42:13.892Z,31.13
2019-01-31T09:44:55.941Z,28.67
2019-01-31T09:47:31.965Z,33.07
2019-01-31T09:50:17.751Z,31.03
2019-01-31T09:53:06.962Z,32.20
2019-01-31T09:55:57.723Z,33.70
2019-01-31T09:58:37.918Z,30.07
2019-01-31T10:01:25.740Z,30.77
2019-01-31T10:04:04.570Z,32.23
2019-01-31T10:07:02.916Z,37.97
2019-01-31T10:09:50.868Z,31.87
2019-01-31T10:12:38.629Z,33.43
2019-01-31T10:15:28.135Z,30.73
2019-01-31T10:18:14.757Z,32.87
2019-01-31T10:21:07.215Z,31.73
2019-01-31T10:23:59.529Z,35.13
2019-01-31T10:26:40.426Z,32.97
2019-01-31T10:29:33.440Z,28.17
2019-01-31T10:32:22.271Z,28.57
2019-01-31T10:34:56.421Z,28.60
2019-01-31T10:37:31.575Z,32.30
2019-01-31T10:40:05.642Z,29.73
2019-01-31T10:42:50.394Z,28.10
2019-01-31T10:45:32.667Z,26.77
2019-01-31T10:48:07.222Z,30.13
2019-01-31T10:51:02.525Z,32.97
2019-01-31T10:53:51.824Z,26.53
2019-01-31T10:56:53.241Z,30.23
2019-01-31T10:59:48.632Z,33.27
2019-01-31T11:02:35.397Z,24.70
2019-01-31T11:05:39.945Z,30.80
2019-01-31T11:08:25.167Z,27.33
2019-01-31T11:11:13.091Z,29.67
2019-01-31T11:13:50.418Z,30.67
2019-01-31T11:16:39.703Z,34.63
2019-01-31T11:19:41.157Z,26.33
2019-01-31T11:22:42.458Z,30.23
2019-01-31T11:25:37.926Z,22.43
2019-01-31T11:28:15.252Z,31.00
2019-01-31T11:31:07.283Z,28.67
2019-01-31T11:33:49.959Z,23.70
2019-01-31T11:36:57.335Z,27.47
2019-01-31T11:39:39.550Z,29.20
2019-01-31T11:42:27.458Z,31.20
2019-01-31T11:45:20.526Z,32.13
2019-01-31T11:48:18.882Z,24.67
2019-01-31T11:51:06.956Z,23.17
2019-01-31T11:53:58.264Z,22.83
2019-01-31T11:56:33.341Z,31.90
2019-01-31T11:59:05.800Z,30.77
2019-01-31T12:01:36.550Z,25.63
2019-01-31T12:04:08.176Z,29.33
2019-01-31T12:06:38.205Z,31.07
2019-01-31T12:09:09.902Z,25.40
2019-01-31T12:11:39.940Z,27.17
2019-01-31T12:14:11.126Z,27.60
2019-01-31T12:16:41.180Z,26.23
2019-01-31T12:19:11.289Z,26.17
2019-01-31T12:21:41.358Z,28.97
2019-01-31T12:24:16.436Z,24.47
2019-01-31T12:26:43.583Z,26.43
2019-01-31T12:29:13.716Z,24.27
2019-01-31T12:31:43.833Z,27.30
2019-01-31T12:34:13.888Z,29.07
2019-01-31T12:36:43.928Z,24.87
2019-01-31T12:39:14.279Z,29.90
2019-01-31T12:41:44.429Z,26.63
2019-01-31T12:44:14.584Z,26.87
2019-01-31T12:46:44.697Z,30.47
2019-01-31T12:49:14.697Z,26.57
2019-01-31T12:51:44.690Z,33.57
2019-01-31T12:54:14.681Z,28.07
2019-01-31T12:56:44.785Z,30.00
2019-01-31T12:59:14.772Z,31.37
2019-01-31T13:01:44.809Z,28.60
2019-01-31T13:04:14.845Z,35.47
2019-01-31T13:06:44.888Z,32.23
2019-01-31T13:09:14.934Z,31.60
2019-01-31T13:11:45.016Z,30.70
2019-01-31T13:14:15.090Z,31.17
2019-01-31T13:16:45.203Z,28.47
2019-01-31T13:19:15.299Z,29.67
2019-01-31T13:21:45.278Z,32.03
2019-01-31T13:24:15.336Z,27.50
2019-01-31T13:26:45.399Z,33.17
2019-01-31T13:29:15.612Z,31.60
2019-01-31T13:31:45.842Z,36.27
2019-01-31T13:34:15.888Z,32.10
2019-01-31T13:36:46.946Z,28.30
2019-01-31T13:39:17.452Z,31.80
2019-01-31T13:41:47.507Z,29.70
2019-01-31T13:44:17.807Z,27.20
2019-01-31T13:46:48.133Z,27.93
2019-01-31T13:49:18.173Z,29.03
2019-01-31T13:51:48.249Z,23.70
2019-01-31T13:54:18.306Z,26.27
2019-01-31T13:56:48.346Z,31.33
2019-01-31T13:59:18.297Z,28.93
2019-01-31T14:01:48.288Z,26.83
2019-01-31T14:04:18.278Z,21.40
2019-01-31T14:06:48.324Z,20.27
2019-01-31T14:09:18.370Z,24.33
2019-01-31T14:11:48.438Z,23.20
2019-01-31T14:14:19.390Z,22.17
2019-01-31T14:16:49.611Z,20.13
2019-01-31T14:19:19.655Z,19.80
2019-01-31T14:21:49.729Z,21.77
2019-01-31T14:24:19.812Z,20.23
2019-01-31T14:26:49.957Z,23.80
2019-01-31T14:29:21.009Z,18.83
2019-01-31T14:31:51.185Z,21.20
2019-01-31T14:34:21.572Z,23.63
2019-01-31T14:36:51.680Z,22.07
2019-01-31T14:39:21.700Z,19.03
2019-01-31T14:41:51.840Z,16.37
2019-01-31T14:44:21.914Z,18.23
2019-01-31T14:46:52.400Z,17.77
2019-01-31T14:49:22.908Z,18.57
2019-01-31T14:51:52.948Z,17.10
2019-01-31T14:54:24.586Z,22.63
2019-01-31T14:56:54.609Z,20.13
2019-01-31T14:59:24.695Z,14.70
2019-01-31T15:01:54.740Z,16.73
2019-01-31T15:04:24.726Z,14.87
2019-01-31T15:06:54.701Z,14.57
2019-01-31T15:09:24.848Z,17.93
2019-01-31T15:11:54.892Z,14.70
2019-01-31T15:14:31.456Z,14.83
2019-01-31T15:16:56.870Z,15.90
2019-01-31T15:19:27.139Z,12.97
2019-01-31T15:21:57.157Z,12.37
2019-01-31T15:24:27.219Z,15.00
2019-01-31T15:26:57.378Z,15.80
2019-01-31T15:29:27.420Z,15.27
2019-01-31T15:31:57.508Z,14.60
2019-01-31T15:34:27.588Z,14.40
2019-01-31T15:36:57.622Z,13.67
2019-01-31T15:39:27.583Z,17.47
2019-01-31T15:41:57.676Z,14.30
2019-01-31T15:44:27.874Z,15.10
2019-01-31T15:46:57.954Z,14.40
2019-01-31T15:49:28.010Z,12.07
2019-01-31T15:51:58.045Z,14.73
2019-01-31T15:54:28.083Z,10.90
2019-01-31T15:56:58.172Z,13.33
2019-01-31T15:59:28.304Z,12.07
2019-01-31T16:01:58.352Z,12.70
2019-01-31T16:04:28.363Z,16.40
2019-01-31T16:06:58.521Z,11.10
2019-01-31T16:09:28.582Z,12.60
2019-01-31T16:11:59.769Z,12.40
2019-01-31T16:14:29.958Z,15.23
2019-01-31T16:17:00.029Z,13.70
2019-01-31T16:19:31.300Z,11.93
2019-01-31T16:22:01.379Z,10.07
2019-01-31T16:24:31.346Z,11.63
2019-01-31T16:27:01.394Z,12.13
2019-01-31T16:29:31.486Z,10.30
2019-01-31T16:32:01.637Z,11.10
2019-01-31T16:34:31.642Z,15.03
2019-01-31T16:37:02.894Z,12.67
2019-01-31T16:39:32.957Z,12.50
2019-01-31T16:42:02.999Z,13.03
2019-01-31T16:44:33.040Z,12.57
2019-01-31T16:47:03.297Z,10.17
2019-01-31T16:49:33.300Z,11.83
2019-01-31T16:52:04.372Z,10.67
2019-01-31T16:54:34.405Z,14.03
2019-01-31T16:57:04.510Z,12.43
2019-01-31T16:59:34.532Z,11.60
2019-01-31T17:02:05.358Z,12.03
2019-01-31T17:04:36.492Z,17.03
2019-01-31T17:07:09.043Z,12.63
2019-01-31T17:09:40.237Z,12.03
2019-01-31T17:12:10.328Z,11.47
2019-01-31T17:14:40.690Z,12.10
2019-01-31T17:17:10.866Z,12.67
2019-01-31T17:19:42.174Z,13.03
2019-01-31T17:25:41.671Z,11.43
2019-01-31T17:43:53.385Z,12.30
2019-01-31T17:46:24.187Z,12.43
2019-01-31T17:49:05.745Z,8.57
2019-01-31T17:51:39.668Z,15.07
2019-01-31T17:54:14.706Z,14.87
2019-01-31T17:56:45.146Z,20.87
2019-01-31T18:02:09.501Z,13.90
2019-01-31T18:04:39.609Z,9.80
2019-01-31T18:07:09.762Z,14.07
2019-01-31T18:09:40.311Z,16.00
2019-01-31T18:12:10.521Z,16.07
2019-01-31T18:14:40.667Z,12.93
2019-01-31T18:17:11.190Z,15.57
2019-01-31T18:19:41.476Z,12.43
2019-01-31T18:22:11.620Z,15.37
2019-01-31T18:24:49.503Z,13.80
2019-01-31T18:27:19.572Z,16.03
2019-01-31T18:29:52.418Z,12.43
2019-01-31T18:32:27.258Z,11.07
2019-01-31T18:34:59.419Z,10.60
2019-01-31T18:46:46.771Z,13.67
2019-01-31T18:49:18.618Z,11.47
2019-01-31T18:52:03.854Z,13.87
2019-01-31T18:54:28.171Z,13.20
2019-01-31T18:56:59.894Z,11.93
2019-01-31T18:59:30.586Z,13.93
2019-01-31T19:02:00.614Z,11.87
2019-01-31T19:04:30.713Z,14.00
2019-01-31T19:07:06.948Z,13.93
2019-01-31T19:57:58.277Z,15.27
2019-01-31T21:08:20.084Z,18.00
2019-01-31T21:55:11.314Z,11.63
2019-01-31T21:57:42.344Z,13.77
2019-01-31T22:00:20.229Z,13.20
2019-01-31T22:02:59.330Z,15.53
2019-01-31T22:05:34.178Z,10.87
2019-01-31T22:08:48.614Z,10.53
2019-01-31T22:11:38.794Z,9.67
2019-01-31T22:14:13.660Z,12.63
2019-01-31T22:16:49.339Z,10.30
2019-01-31T22:59:46.357Z,7.60
2019-01-31T23:02:28.779Z,6.57
2019-01-31T23:04:58.761Z,8.27
2019-01-31T23:07:29.025Z,9.70
2019-01-31T23:10:09.165Z,6.67
2019-01-31T23:12:50.505Z,5.50
2019-01-31T23:15:21.508Z,9.83
2019-01-31T23:17:52.293Z,5.70
2019-01-31T23:20:22.985Z,8.27
2019-01-31T23:22:53.755Z,7.67
2019-01-31T23:25:24.365Z,6.30
2019-01-31T23:27:54.919Z,8.07
2019-01-31T23:30:45.273Z,6.00
2019-01-31T23:33:21.698Z,6.97
2019-01-31T23:35:54.159Z,7.70
2019-01-31T23:38:24.492Z,5.17
2019-01-31T23:40:55.326Z,6.50
2019-01-31T23:43:26.258Z,6.50
2019-01-31T23:45:57.066Z,5.90
2019-01-31T23:48:27.712Z,8.50
2019-01-31T23:51:01.377Z,6.27
2019-01-31T23:53:32.333Z,7.30
2019-01-31T23:56:02.649Z,5.03
2019-01-31T23:58:33.148Z,5.03
